createdAt,value
2019-01-16T00:00:20.946Z,7.20
2019-01-16T00:02:51.944Z,7.40
2019-01-16T00:05:40.870Z,7.20
2019-01-16T00:08:11.881Z,7.30
2019-01-16T00:10:48.310Z,7.40
2019-01-16T00:13:35.537Z,7.50
2019-01-16T00:16:06.333Z,7.50
2019-01-16T00:18:53.620Z,7.30
2019-01-16T00:21:30.457Z,7.30
2019-01-16T00:24:04.100Z,7.40
2019-01-16T00:26:51.677Z,7.40
2019-01-16T00:29:39.095Z,7.40
2019-01-16T00:32:09.855Z,7.50
2019-01-16T00:34:55.921Z,7.20
2019-01-16T00:37:38.879Z,7.40
2019-01-16T00:40:29.071Z,7.30
2019-01-16T00:43:05.692Z,7.50
2019-01-16T00:45:48.515Z,7.40
2019-01-16T00:48:25.442Z,7.50
2019-01-16T00:51:11.087Z,7.50
2019-01-16T00:53:42.106Z,7.50
2019-01-16T00:56:18.949Z,7.40
2019-01-16T00:59:05.047Z,7.40
2019-01-16T01:01:36.115Z,7.60
2019-01-16T01:04:23.539Z,7.50
2019-01-16T01:07:12.546Z,7.40
2019-01-16T01:09:43.603Z,7.50
2019-01-16T01:12:37.503Z,7.50
2019-01-16T01:15:10.178Z,7.60
2019-01-16T01:17:40.897Z,7.60
2019-01-16T01:20:17.641Z,7.60
2019-01-16T01:22:51.129Z,7.70
2019-01-16T01:25:24.589Z,7.60
2019-01-16T01:28:11.854Z,7.50
2019-01-16T01:30:51.720Z,7.60
2019-01-16T01:33:29.011Z,7.50
2019-01-16T01:36:18.306Z,7.40
2019-01-16T01:38:49.434Z,7.50
2019-01-16T01:41:32.356Z,7.50
2019-01-16T01:44:15.009Z,7.60
2019-01-16T01:46:51.215Z,7.60
2019-01-16T01:49:24.896Z,7.60
2019-01-16T01:51:55.651Z,7.60
2019-01-16T01:54:29.472Z,7.50
2019-01-16T01:57:00.478Z,7.30
2019-01-16T01:59:31.210Z,7.40
2019-01-16T02:02:01.937Z,7.60
2019-01-16T02:04:49.286Z,7.50
2019-01-16T02:07:36.278Z,7.60
2019-01-16T02:10:15.158Z,7.60
2019-01-16T02:13:02.161Z,7.40
2019-01-16T02:15:33.175Z,7.40
2019-01-16T02:18:03.892Z,7.50
2019-01-16T02:20:34.981Z,7.50
2019-01-16T02:23:22.276Z,7.60
2019-01-16T02:26:09.448Z,7.50
2019-01-16T02:28:48.710Z,7.50
2019-01-16T02:31:25.489Z,7.50
2019-01-16T02:33:59.135Z,7.50
2019-01-16T02:36:35.320Z,7.50
2019-01-16T02:39:10.360Z,7.50
2019-01-16T02:41:41.374Z,7.50
2019-01-16T02:44:30.785Z,7.40
2019-01-16T02:47:07.418Z,7.60
2019-01-16T02:49:41.266Z,7.40
2019-01-16T02:52:12.004Z,7.40
2019-01-16T02:54:51.433Z,7.50
2019-01-16T02:57:31.711Z,7.50
2019-01-16T03:00:02.436Z,7.50
2019-01-16T03:02:48.498Z,7.50
2019-01-16T03:05:22.251Z,7.50
2019-01-16T03:07:58.821Z,7.60
2019-01-16T03:10:29.795Z,7.40
2019-01-16T03:13:16.587Z,7.50
2019-01-16T03:16:03.281Z,7.50
2019-01-16T03:18:34.272Z,7.40
2019-01-16T03:21:04.986Z,7.50
2019-01-16T03:23:36.008Z,7.40
2019-01-16T03:26:06.780Z,7.40
2019-01-16T03:28:37.537Z,7.40
2019-01-16T03:31:26.609Z,7.50
2019-01-16T03:34:03.192Z,7.40
2019-01-16T03:36:43.389Z,7.50
2019-01-16T03:39:17.075Z,7.60
2019-01-16T03:41:48.123Z,7.50
2019-01-16T03:44:22.406Z,7.50
2019-01-16T03:46:53.117Z,7.50
2019-01-16T03:49:35.893Z,7.60
2019-01-16T03:52:07.221Z,7.40
2019-01-16T03:54:46.572Z,7.50
2019-01-16T03:57:34.009Z,7.40
2019-01-16T04:00:22.869Z,7.40
2019-01-16T04:03:09.990Z,7.50
2019-01-16T04:05:57.245Z,7.40
2019-01-16T04:08:30.694Z,7.40
2019-01-16T04:11:16.638Z,7.40
2019-01-16T04:13:47.386Z,7.20
2019-01-16T04:16:18.773Z,7.20
2019-01-16T04:18:49.517Z,7.30
2019-01-16T04:21:20.268Z,7.30
2019-01-16T04:23:57.430Z,7.20
2019-01-16T04:26:28.230Z,7.20
2019-01-16T04:29:15.447Z,7.20
2019-01-16T04:32:02.823Z,7.20
2019-01-16T04:34:40.022Z,7.40
2019-01-16T04:37:29.199Z,7.30
2019-01-16T04:39:59.951Z,7.30
2019-01-16T04:42:36.665Z,7.40
2019-01-16T04:45:24.795Z,7.30
2019-01-16T04:48:04.937Z,7.40
2019-01-16T04:50:44.483Z,7.30
2019-01-16T04:53:20.748Z,7.30
2019-01-16T04:56:09.544Z,7.30
2019-01-16T04:58:43.340Z,7.30
2019-01-16T05:01:25.929Z,7.40
2019-01-16T05:03:59.614Z,7.30
2019-01-16T05:06:36.337Z,7.20
2019-01-16T05:09:09.637Z,7.30
2019-01-16T05:11:56.685Z,7.30
2019-01-16T05:14:27.456Z,7.40
2019-01-16T05:16:58.432Z,7.30
2019-01-16T05:19:45.107Z,7.20
2019-01-16T05:22:15.829Z,7.30
2019-01-16T05:24:52.169Z,7.30
2019-01-16T05:27:35.392Z,7.30
2019-01-16T05:30:24.280Z,7.20
2019-01-16T05:32:58.217Z,7.00
2019-01-16T05:35:32.608Z,6.80
2019-01-16T05:38:12.820Z,6.90
2019-01-16T05:41:00.453Z,6.90
2019-01-16T05:43:31.173Z,7.00
2019-01-16T05:46:11.151Z,6.90
2019-01-16T05:48:50.845Z,6.90
2019-01-16T05:51:24.521Z,6.90
2019-01-16T05:53:55.515Z,6.80
2019-01-16T05:56:42.549Z,6.80
2019-01-16T05:59:13.816Z,6.80
2019-01-16T06:01:44.548Z,6.80
2019-01-16T06:04:20.758Z,6.90
2019-01-16T06:06:57.512Z,6.80
2019-01-16T06:09:34.203Z,6.70
2019-01-16T06:12:21.485Z,6.90
2019-01-16T06:14:58.167Z,6.90
2019-01-16T06:17:31.613Z,6.90
2019-01-16T06:20:02.330Z,6.80
2019-01-16T06:22:49.573Z,6.90
2019-01-16T06:25:22.980Z,6.90
2019-01-16T06:28:02.652Z,6.90
2019-01-16T06:30:39.141Z,6.90
2019-01-16T06:33:10.163Z,6.90
2019-01-16T06:35:40.873Z,6.90
2019-01-16T06:38:11.640Z,6.90
2019-01-16T06:40:42.630Z,6.80
2019-01-16T06:43:22.379Z,6.90
2019-01-16T06:45:53.106Z,6.80
2019-01-16T06:48:33.123Z,6.90
2019-01-16T06:51:12.926Z,7.00
2019-01-16T06:53:46.594Z,7.00
2019-01-16T06:56:26.101Z,7.00
2019-01-16T06:59:02.784Z,6.90
2019-01-16T07:01:39.853Z,6.90
2019-01-16T07:04:13.337Z,6.80
2019-01-16T07:06:59.022Z,6.90
2019-01-16T07:09:32.939Z,6.80
2019-01-16T07:12:06.558Z,6.80
2019-01-16T07:14:37.289Z,6.80
2019-01-16T07:17:13.497Z,6.80
2019-01-16T07:19:59.114Z,6.70
2019-01-16T07:22:32.446Z,6.70
2019-01-16T07:25:09.150Z,6.70
2019-01-16T07:27:49.329Z,6.70
2019-01-16T07:30:29.673Z,6.60
2019-01-16T07:33:20.217Z,6.80
2019-01-16T07:35:50.929Z,6.70
2019-01-16T07:38:31.439Z,6.70
2019-01-16T07:41:18.965Z,6.80
2019-01-16T07:44:01.722Z,6.80
2019-01-16T07:46:49.118Z,6.80
2019-01-16T07:49:36.480Z,6.80
2019-01-16T07:52:07.259Z,6.90
2019-01-16T07:54:37.969Z,6.80
2019-01-16T07:57:14.844Z,6.80
2019-01-16T07:59:57.852Z,6.80
2019-01-16T08:02:44.840Z,7.00
2019-01-16T08:05:30.649Z,7.00
2019-01-16T08:08:13.666Z,7.00
2019-01-16T08:10:50.482Z,6.80
2019-01-16T08:13:21.682Z,7.00
2019-01-16T08:16:09.194Z,7.00
2019-01-16T08:18:39.973Z,7.10
2019-01-16T08:21:13.410Z,7.00
2019-01-16T08:23:44.403Z,7.10
2019-01-16T08:26:31.723Z,7.10
2019-01-16T08:29:17.394Z,7.00
2019-01-16T08:31:54.361Z,7.20
2019-01-16T08:34:37.328Z,7.20
2019-01-16T08:37:24.274Z,7.10
2019-01-16T08:39:55.269Z,7.20
2019-01-16T08:42:28.811Z,7.20
2019-01-16T08:45:02.777Z,7.40
2019-01-16T08:47:48.566Z,7.30
2019-01-16T08:50:19.472Z,7.30
2019-01-16T08:52:50.258Z,7.30
2019-01-16T08:55:21.203Z,7.40
2019-01-16T08:57:52.232Z,7.40
2019-01-16T09:00:23.221Z,7.50
2019-01-16T09:03:10.547Z,7.40
2019-01-16T09:05:41.611Z,7.50
2019-01-16T09:08:15.296Z,7.60
2019-01-16T09:10:58.405Z,7.60
2019-01-16T09:13:47.177Z,7.50
2019-01-16T09:16:20.647Z,7.50
2019-01-16T09:18:57.162Z,7.50
2019-01-16T09:21:44.392Z,7.50
2019-01-16T09:24:15.105Z,7.50
2019-01-16T09:26:48.741Z,7.60
2019-01-16T09:29:28.440Z,7.50
2019-01-16T09:32:15.216Z,7.60
2019-01-16T09:35:01.544Z,7.60
2019-01-16T09:37:32.899Z,7.50
2019-01-16T09:40:18.643Z,7.70
2019-01-16T09:43:05.845Z,7.80
2019-01-16T09:45:45.797Z,7.80
2019-01-16T09:48:17.118Z,7.70
2019-01-16T09:50:56.633Z,7.80
2019-01-16T09:53:45.744Z,7.70
2019-01-16T09:56:19.747Z,7.80
2019-01-16T09:58:50.762Z,7.80
2019-01-16T10:01:24.345Z,7.80
2019-01-16T10:04:11.669Z,7.80
2019-01-16T10:06:48.351Z,7.90
2019-01-16T10:09:31.655Z,7.80
2019-01-16T10:12:08.597Z,7.80
2019-01-16T10:14:45.309Z,7.90
2019-01-16T10:17:16.134Z,8.00
2019-01-16T10:19:52.933Z,7.90
2019-01-16T10:22:29.412Z,8.00
2019-01-16T10:25:12.278Z,8.00
2019-01-16T10:27:52.154Z,7.90
2019-01-16T10:30:23.986Z,8.00
2019-01-16T10:33:09.965Z,8.00
2019-01-16T10:35:40.968Z,8.00
2019-01-16T10:38:11.985Z,8.00
2019-01-16T10:40:54.734Z,8.00
2019-01-16T10:43:43.507Z,8.00
2019-01-16T10:46:17.205Z,8.10
2019-01-16T10:48:56.597Z,8.10
2019-01-16T10:51:42.699Z,8.00
2019-01-16T10:54:13.681Z,8.00
2019-01-16T10:56:59.974Z,8.10
2019-01-16T10:59:42.828Z,8.00
2019-01-16T11:02:29.952Z,8.10
2019-01-16T11:05:17.068Z,8.10
2019-01-16T11:07:50.913Z,8.00
2019-01-16T11:10:24.530Z,8.10
2019-01-16T11:13:01.361Z,8.00
2019-01-16T11:15:35.032Z,8.10
2019-01-16T11:18:21.304Z,8.20
2019-01-16T11:20:54.959Z,8.10
2019-01-16T11:23:31.692Z,8.20
2019-01-16T11:26:11.790Z,8.20
2019-01-16T11:28:43.186Z,8.30
2019-01-16T11:31:30.445Z,8.20
2019-01-16T11:34:03.868Z,8.20
2019-01-16T11:36:53.033Z,8.20
2019-01-16T11:39:40.261Z,8.20
2019-01-16T11:42:11.001Z,8.20
2019-01-16T11:44:56.766Z,8.30
2019-01-16T11:47:30.492Z,8.50
2019-01-16T11:50:10.567Z,8.40
2019-01-16T11:52:47.533Z,8.50
2019-01-16T11:55:33.279Z,8.50
2019-01-16T11:58:20.169Z,8.50
2019-01-16T12:00:57.384Z,8.40
2019-01-16T12:03:37.621Z,8.50
2019-01-16T12:06:25.162Z,8.50
2019-01-16T12:09:12.267Z,8.50
2019-01-16T12:11:59.454Z,8.60
2019-01-16T12:14:38.936Z,8.50
2019-01-16T12:17:26.081Z,8.50
2019-01-16T12:20:13.628Z,8.60
2019-01-16T12:22:44.642Z,8.70
2019-01-16T12:25:18.026Z,8.70
2019-01-16T12:27:51.569Z,8.70
2019-01-16T12:30:42.531Z,8.70
2019-01-16T12:33:16.223Z,8.60
2019-01-16T12:35:53.172Z,8.70
2019-01-16T12:38:23.993Z,8.70
2019-01-16T12:41:11.196Z,8.70
2019-01-16T12:43:47.854Z,8.60
2019-01-16T12:46:21.796Z,8.70
2019-01-16T12:49:01.331Z,8.60
2019-01-16T12:51:37.806Z,8.60
2019-01-16T12:54:17.250Z,8.70
2019-01-16T12:56:56.658Z,8.80
2019-01-16T12:59:36.607Z,8.80
2019-01-16T13:02:07.612Z,8.90
2019-01-16T13:04:44.405Z,8.80
2019-01-16T13:07:30.153Z,8.70
2019-01-16T13:10:06.877Z,8.60
2019-01-16T13:12:46.424Z,8.60
2019-01-16T13:15:33.835Z,8.60
2019-01-16T13:18:04.569Z,8.80
2019-01-16T13:20:50.372Z,8.60
2019-01-16T13:23:27.395Z,8.70
2019-01-16T13:26:13.259Z,8.70
2019-01-16T13:28:44.222Z,8.60
2019-01-16T13:31:33.173Z,8.70
2019-01-16T13:34:04.154Z,8.60
2019-01-16T13:36:34.864Z,8.60
2019-01-16T13:39:08.869Z,8.50
2019-01-16T13:41:39.840Z,8.40
2019-01-16T13:44:26.080Z,8.50
2019-01-16T13:46:59.709Z,8.50
2019-01-16T13:49:39.824Z,8.40
2019-01-16T13:52:22.764Z,8.40
2019-01-16T13:55:09.833Z,8.40
2019-01-16T13:57:43.561Z,8.30
2019-01-16T14:00:15.687Z,8.10
2019-01-16T14:02:55.605Z,8.20
2019-01-16T14:05:29.329Z,8.10
2019-01-16T14:08:06.107Z,8.00
2019-01-16T14:10:45.851Z,7.90
2019-01-16T14:13:22.567Z,8.00
2019-01-16T14:15:59.041Z,7.90
2019-01-16T14:18:32.429Z,7.90
2019-01-16T14:21:12.668Z,8.00
2019-01-16T14:23:46.100Z,8.00
2019-01-16T14:26:17.397Z,7.90
2019-01-16T14:28:54.322Z,7.90
2019-01-16T14:31:25.054Z,7.80
2019-01-16T14:33:58.694Z,7.90
2019-01-16T14:36:45.888Z,7.70
2019-01-16T14:39:19.575Z,7.80
2019-01-16T14:42:08.224Z,7.80
2019-01-16T14:44:45.901Z,7.70
2019-01-16T14:47:17.116Z,7.70
2019-01-16T14:49:51.678Z,7.70
2019-01-16T14:52:22.373Z,7.80
2019-01-16T14:55:06.402Z,7.80
2019-01-16T14:57:50.912Z,7.70
2019-01-16T15:00:25.158Z,7.60
2019-01-16T15:03:05.041Z,7.70
2019-01-16T15:05:38.801Z,7.70
2019-01-16T15:08:12.944Z,7.60
2019-01-16T15:10:43.917Z,7.70
2019-01-16T15:13:26.932Z,7.70
2019-01-16T15:16:14.305Z,7.60
2019-01-16T15:18:50.970Z,7.50
2019-01-16T15:21:38.117Z,7.40
2019-01-16T15:24:18.079Z,7.50
2019-01-16T15:26:54.896Z,7.50
2019-01-16T15:29:31.823Z,7.50
2019-01-16T15:32:09.036Z,7.50
2019-01-16T15:34:43.228Z,7.50
2019-01-16T15:37:14.270Z,7.50
2019-01-16T15:39:45.235Z,7.30
2019-01-16T15:42:32.561Z,7.40
2019-01-16T15:45:09.196Z,7.50
2019-01-16T15:47:46.088Z,7.50
2019-01-16T15:50:35.299Z,7.40
2019-01-16T15:53:06.127Z,7.40
2019-01-16T15:55:37.159Z,7.30
2019-01-16T15:58:19.997Z,7.40
2019-01-16T16:01:03.276Z,7.20
2019-01-16T16:03:50.445Z,7.30
2019-01-16T16:06:24.099Z,7.20
2019-01-16T16:08:55.098Z,7.30
2019-01-16T16:11:26.059Z,7.20
2019-01-16T16:14:13.438Z,7.20
2019-01-16T16:16:50.212Z,7.30
2019-01-16T16:19:23.892Z,7.20
2019-01-16T16:21:54.858Z,7.20
2019-01-16T16:24:31.579Z,7.30
2019-01-16T16:27:18.910Z,7.20
2019-01-16T16:29:52.871Z,7.20
2019-01-16T16:32:23.828Z,7.20
2019-01-16T16:35:06.474Z,7.20
2019-01-16T16:37:40.153Z,7.00
2019-01-16T16:40:12.201Z,7.20
2019-01-16T16:42:42.942Z,7.10
2019-01-16T16:45:14.191Z,7.00
2019-01-16T16:47:53.573Z,7.00
2019-01-16T16:50:40.576Z,7.10
2019-01-16T16:53:11.555Z,6.90
2019-01-16T16:55:51.505Z,6.90
2019-01-16T16:58:25.460Z,6.80
2019-01-16T17:00:59.249Z,6.80
2019-01-16T17:03:48.363Z,6.70
2019-01-16T17:06:25.020Z,6.70
2019-01-16T17:09:05.195Z,6.60
2019-01-16T17:11:45.218Z,6.60
2019-01-16T17:14:21.678Z,6.60
2019-01-16T17:16:58.164Z,6.60
2019-01-16T17:19:29.416Z,6.30
2019-01-16T17:22:09.342Z,6.40
2019-01-16T17:24:49.107Z,6.40
2019-01-16T17:27:36.047Z,6.40
2019-01-16T17:30:21.242Z,6.30
2019-01-16T17:32:52.066Z,6.50
2019-01-16T17:35:23.047Z,6.30
2019-01-16T17:37:59.551Z,6.20
2019-01-16T17:40:46.572Z,6.10
2019-01-16T17:43:33.516Z,6.00
2019-01-16T17:46:06.701Z,6.10
2019-01-16T17:48:37.542Z,6.10
2019-01-16T17:51:17.059Z,6.10
2019-01-16T17:54:04.457Z,6.00
2019-01-16T17:56:51.816Z,6.10
2019-01-16T17:59:28.277Z,6.00
2019-01-16T18:01:59.253Z,5.90
2019-01-16T18:04:33.219Z,5.90
2019-01-16T18:07:10.183Z,6.00
2019-01-16T18:09:40.952Z,5.90
2019-01-16T18:12:14.934Z,5.80
2019-01-16T18:14:48.413Z,5.80
2019-01-16T18:17:31.117Z,5.80
2019-01-16T18:20:17.199Z,5.80
2019-01-16T18:22:48.179Z,5.80
2019-01-16T18:25:18.933Z,5.80
2019-01-16T18:28:05.928Z,5.70
2019-01-16T18:30:39.653Z,5.80
2019-01-16T18:33:22.792Z,5.80
2019-01-16T18:36:02.397Z,5.70
2019-01-16T18:38:49.477Z,5.80
2019-01-16T18:41:23.144Z,5.90
2019-01-16T18:44:10.378Z,5.80
2019-01-16T18:46:50.430Z,5.70
2019-01-16T18:49:30.373Z,5.80
2019-01-16T18:52:01.391Z,5.70
2019-01-16T18:54:38.344Z,5.80
2019-01-16T18:57:25.520Z,5.90
2019-01-16T18:59:59.225Z,5.90
2019-01-16T19:02:36.143Z,5.90
2019-01-16T19:05:24.514Z,5.90
2019-01-16T19:08:11.982Z,5.90
2019-01-16T19:10:42.969Z,6.00
2019-01-16T19:13:13.993Z,6.00
2019-01-16T19:15:44.965Z,6.00
2019-01-16T19:18:21.430Z,6.00
2019-01-16T19:21:07.461Z,6.00
2019-01-16T19:23:50.093Z,5.90
2019-01-16T19:26:27.018Z,5.90
2019-01-16T19:29:13.046Z,6.00
2019-01-16T19:31:44.089Z,6.00
2019-01-16T19:34:14.895Z,6.00
2019-01-16T19:37:01.076Z,6.00
2019-01-16T19:39:48.836Z,5.80
2019-01-16T19:42:25.846Z,5.80
2019-01-16T19:44:56.622Z,5.80
2019-01-16T19:47:33.293Z,5.90
2019-01-16T19:50:13.426Z,5.80
2019-01-16T19:53:04.690Z,5.80
2019-01-16T19:55:44.197Z,5.90
2019-01-16T19:58:14.920Z,5.80
2019-01-16T20:00:54.794Z,5.80
2019-01-16T20:03:42.153Z,5.90
2019-01-16T20:06:15.672Z,5.90
2019-01-16T20:08:49.377Z,5.90
2019-01-16T20:11:26.406Z,5.80
2019-01-16T20:14:08.845Z,5.90
2019-01-16T20:16:51.301Z,5.90
2019-01-16T20:19:25.018Z,5.90
2019-01-16T20:21:56.191Z,5.90
2019-01-16T20:24:26.949Z,5.80
2019-01-16T20:27:12.818Z,5.90
2019-01-16T20:29:46.280Z,5.90
2019-01-16T20:32:23.018Z,5.80
2019-01-16T20:34:56.493Z,5.70
2019-01-16T20:37:42.210Z,5.80
2019-01-16T20:40:16.829Z,5.70
2019-01-16T20:42:47.825Z,5.70
2019-01-16T20:45:21.848Z,5.60
2019-01-16T20:48:08.935Z,5.70
2019-01-16T20:50:39.950Z,5.60
2019-01-16T20:53:17.582Z,5.60
2019-01-16T20:55:54.753Z,5.60
2019-01-16T20:58:25.632Z,5.60
2019-01-16T21:01:13.163Z,5.60
2019-01-16T21:03:49.862Z,5.60
2019-01-16T21:06:23.405Z,5.70
2019-01-16T21:08:54.510Z,5.60
2019-01-16T21:14:02.248Z,5.70
2019-01-16T21:19:11.616Z,5.70
2019-01-16T21:21:47.942Z,5.60
2019-01-16T21:24:18.780Z,5.70
2019-01-16T21:26:50.017Z,5.60
2019-01-16T21:29:30.033Z,5.70
2019-01-16T21:32:19.264Z,5.60
2019-01-16T21:34:53.134Z,5.60
2019-01-16T21:37:33.229Z,5.60
2019-01-16T21:40:13.089Z,5.50
2019-01-16T21:42:43.884Z,5.50
2019-01-16T21:45:14.981Z,5.40
2019-01-16T21:48:00.323Z,5.40
2019-01-16T21:50:43.592Z,5.40
2019-01-16T21:56:39.444Z,5.50
2019-01-16T21:59:19.600Z,5.50
2019-01-16T22:02:09.778Z,5.40
2019-01-16T22:04:40.601Z,5.40
2019-01-16T22:07:17.369Z,5.30
2019-01-16T22:09:48.177Z,5.40
2019-01-16T22:12:19.270Z,5.50
2019-01-16T22:15:08.012Z,5.50
2019-01-16T22:17:39.506Z,5.50
2019-01-16T22:20:10.600Z,5.50
2019-01-16T22:22:57.594Z,5.50
2019-01-16T22:25:44.730Z,5.50
2019-01-16T22:28:18.424Z,5.40
2019-01-16T22:30:57.992Z,5.40
2019-01-16T22:33:46.513Z,5.50
2019-01-16T22:36:32.888Z,5.40
2019-01-16T22:39:03.895Z,5.50
2019-01-16T22:41:34.633Z,5.40
2019-01-16T22:44:17.864Z,5.30
2019-01-16T22:46:51.495Z,5.40
2019-01-16T22:49:22.461Z,5.40
2019-01-16T22:51:53.327Z,5.50
2019-01-16T22:54:24.277Z,5.30
2019-01-16T22:56:57.738Z,5.40
2019-01-16T22:59:40.434Z,5.40
2019-01-16T23:02:27.677Z,5.50
2019-01-16T23:05:01.148Z,5.50
2019-01-16T23:07:44.500Z,5.50
2019-01-16T23:10:18.180Z,5.50
2019-01-16T23:12:54.823Z,5.50
2019-01-16T23:15:37.744Z,5.60
2019-01-16T23:18:26.408Z,5.50
2019-01-16T23:21:00.302Z,5.60
2019-01-16T23:23:31.331Z,5.50
2019-01-16T23:26:02.054Z,5.60
2019-01-16T23:28:35.670Z,5.60
2019-01-16T23:31:22.521Z,5.60
2019-01-16T23:34:05.598Z,5.50
2019-01-16T23:36:39.090Z,5.70
2019-01-16T23:39:09.898Z,5.70
2019-01-16T23:41:40.922Z,5.80
2019-01-16T23:44:11.895Z,5.70
2019-01-16T23:46:45.541Z,5.90
2019-01-16T23:49:27.943Z,5.90
2019-01-16T23:52:10.667Z,6.00
2019-01-16T23:54:41.494Z,6.00
2019-01-16T23:57:24.402Z,6.00
2019-01-16T23:59:55.403Z,6.10
